Southern Pines, NC

5:17 PM EDT on March 23, 2017 (GMT -0400)
Downtown Southern Pines | | Change Station

Elev 535 ft 35.17 °N, 79.40 °W | Updated 3 seconds ago

Clear
Clear
56.3 °F
Feels Like 56.3 °F
N
1.8
Wind Variable Wind from South
Gusts 2.5 mph

Today
High -- | Low -- °F
--% Chance of Precip.
Yesterday
High -- | Low -- °F
Precip. -- in
Pressure 30.57 in
Visibility 10.0 miles
Clouds Clear
Dew Point 27 °F
Humidity 32%
Rainfall 0.00 in
Snow Depth Not available.
7:16 AM 7:31 PM
Waning Crescent, 20% visible
METAR KSOP 232056Z AUTO 15005KT 10SM CLR 13/M06 A3051 RMK AO2 SLP351 T01331056 58015
Pressure 30.57 in
Visibility 10.0 miles
Clouds Clear
Dew Point 27 °F
Humidity 32%
Rainfall 0.00 in
Snow Depth Not available.
7:16 AM 7:31 PM
Waning Crescent, 20% visible
METAR KSOP 232056Z AUTO 15005KT 10SM CLR 13/M06 A3051 RMK AO2 SLP351 T01331056 58015

Get Severe Weather Alerts

Thanks for signing up!

Be on the lookout for a verification email in your inbox.

You'll start receiving the daily forecast at 8 AM.

×

10-Day Weather Forecast

Almanac

Astronomy

Mar. 23, 2017 Rise Set
Actual Time
Civil Twilight
Nautical Twilight
Astronomical Twilight
Moon
Length of Visible Light
Length of Day
Tomorrow will be .
, % of the Moon is Illuminated

Today's Extremes

State Highs State Lows

Community

WunderPhotos

Upload Photos

1,962,540 photos uploaded!

WunderBlog® & News

Nearby

Air Quality

  Air Quality AQ Index Pollutant
Not available.

Snow Depth

Station Depth Elevation

Earthquake Activity

City Distance Mag. Time & Date
Minimum magnitude displayed is 2.5.

Earthquake Activity

City Distance Mag. Time & Date
Minimum magnitude displayed is 2.5.

Coastal Water Temperatures

Place Temperature

Stations

Nearby Weather Stations

Station Location Temp. Windchill Dew Point Humidity Wind Precip. Elev Updated Type
                   

Watches & Warnings

There are currently no watches in effect.